createdAt,value
2017-10-31T00:03:19.212Z,5.20
2017-10-31T00:08:21.857Z,5.20
2017-10-31T00:13:28.153Z,5.30
2017-10-31T00:18:31.056Z,5.30
2017-10-31T00:23:33.917Z,5.30
2017-10-31T00:28:36.609Z,5.30
2017-10-31T00:33:39.396Z,5.30
2017-10-31T00:38:43.022Z,5.40
2017-10-31T00:43:47.331Z,5.30
2017-10-31T00:48:50.401Z,5.40
2017-10-31T00:53:53.874Z,5.40
2017-10-31T00:58:57.563Z,5.40
2017-10-31T01:04:00.900Z,5.40
2017-10-31T01:09:05.151Z,5.40
2017-10-31T01:14:08.048Z,5.40
2017-10-31T01:19:10.730Z,5.40
2017-10-31T01:24:14.613Z,5.50
2017-10-31T01:29:17.199Z,5.50
2017-10-31T01:34:20.082Z,5.50
2017-10-31T01:39:24.178Z,5.50
2017-10-31T01:44:30.461Z,5.50
2017-10-31T01:49:33.335Z,5.50
2017-10-31T01:54:36.232Z,5.50
2017-10-31T01:59:38.950Z,5.50
2017-10-31T02:04:42.384Z,5.50
2017-10-31T02:09:45.734Z,5.50
2017-10-31T02:19:56.010Z,5.50
2017-10-31T02:25:00.134Z,5.50
2017-10-31T02:30:03.440Z,5.50
2017-10-31T02:35:06.875Z,5.50
2017-10-31T02:40:10.311Z,5.50
2017-10-31T02:45:16.226Z,5.50
2017-10-31T02:50:19.436Z,5.50
2017-10-31T03:00:30.315Z,5.40
2017-10-31T03:05:33.674Z,5.40
2017-10-31T03:10:37.893Z,5.40
2017-10-31T03:15:42.160Z,5.40
2017-10-31T03:20:46.357Z,5.40
2017-10-31T03:25:49.457Z,5.40
2017-10-31T03:36:06.772Z,5.40
2017-10-31T03:41:10.252Z,5.40
2017-10-31T03:46:13.676Z,5.40
2017-10-31T03:56:23.799Z,5.30
2017-10-31T04:01:26.807Z,5.30
2017-10-31T04:11:40.029Z,5.30
2017-10-31T04:16:45.031Z,5.30
2017-10-31T04:21:47.869Z,5.20
2017-10-31T04:26:51.207Z,5.20
2017-10-31T04:31:53.935Z,5.20
2017-10-31T04:36:57.345Z,5.20
2017-10-31T04:42:00.353Z,5.20
2017-10-31T04:47:03.281Z,5.20
2017-10-31T04:52:06.842Z,5.10
2017-10-31T04:57:11.146Z,5.10
2017-10-31T05:02:13.820Z,5.10
2017-10-31T05:07:16.801Z,5.00
2017-10-31T05:12:20.454Z,4.90
2017-10-31T05:17:23.771Z,4.90
2017-10-31T05:22:27.961Z,4.80
2017-10-31T05:27:30.810Z,4.80
2017-10-31T05:32:34.505Z,4.70
2017-10-31T05:37:37.927Z,4.70
2017-10-31T05:42:41.003Z,4.60
2017-10-31T05:47:44.317Z,4.60
2017-10-31T05:52:47.375Z,4.50
2017-10-31T05:57:51.368Z,4.40
2017-10-31T06:02:55.124Z,4.40
2017-10-31T06:07:58.127Z,4.30
2017-10-31T06:13:01.590Z,4.30
2017-10-31T06:18:04.232Z,4.30
2017-10-31T06:23:14.323Z,4.20
2017-10-31T06:28:26.494Z,4.20
2017-10-31T06:33:29.853Z,4.10
2017-10-31T06:38:33.102Z,4.10
2017-10-31T06:43:36.444Z,4.10
2017-10-31T06:48:40.632Z,4.00
2017-10-31T06:53:43.623Z,4.00
2017-10-31T06:58:47.991Z,4.00
2017-10-31T07:03:52.235Z,4.00
2017-10-31T07:08:55.666Z,4.00
2017-10-31T07:13:59.287Z,4.00
2017-10-31T07:19:02.155Z,4.00
2017-10-31T07:24:06.399Z,4.00
2017-10-31T07:29:12.436Z,4.10
2017-10-31T07:34:16.243Z,4.20
2017-10-31T07:39:20.649Z,4.30
2017-10-31T07:44:23.589Z,4.30
2017-10-31T07:49:26.619Z,4.50
2017-10-31T07:54:30.010Z,4.60
2017-10-31T07:59:33.404Z,4.80
2017-10-31T08:04:36.778Z,4.80
2017-10-31T08:09:39.471Z,4.90
2017-10-31T08:14:42.340Z,5.20
2017-10-31T08:19:45.273Z,5.40
2017-10-31T08:24:48.607Z,5.70
2017-10-31T08:29:51.968Z,5.90
2017-10-31T08:34:55.361Z,6.10
2017-10-31T08:39:58.712Z,6.40
2017-10-31T08:45:02.910Z,6.60
2017-10-31T08:50:07.116Z,6.80
2017-10-31T08:55:11.506Z,7.10
2017-10-31T09:00:15.848Z,7.30
2017-10-31T09:05:19.241Z,7.60
2017-10-31T09:10:23.029Z,7.90
2017-10-31T09:15:26.844Z,8.00
2017-10-31T09:20:30.400Z,8.50
2017-10-31T09:25:33.338Z,8.40
2017-10-31T09:30:36.232Z,8.70
2017-10-31T09:35:40.687Z,9.30
2017-10-31T09:40:43.267Z,9.20
2017-10-31T09:45:46.121Z,9.50
2017-10-31T09:50:48.827Z,9.80
2017-10-31T09:55:51.466Z,10.00
2017-10-31T10:00:54.431Z,10.30
2017-10-31T10:05:57.075Z,10.50
2017-10-31T10:11:01.336Z,10.70
2017-10-31T10:16:04.212Z,10.80
2017-10-31T10:21:09.163Z,10.50
2017-10-31T10:26:12.867Z,10.50
2017-10-31T10:31:16.432Z,10.40
2017-10-31T10:36:19.371Z,10.40
2017-10-31T10:41:22.085Z,10.50
2017-10-31T10:46:25.049Z,10.70
2017-10-31T10:51:27.774Z,10.70
2017-10-31T11:01:37.242Z,10.50
2017-10-31T11:06:39.894Z,10.40
2017-10-31T11:11:43.749Z,10.50
2017-10-31T11:16:46.663Z,10.60
2017-10-31T11:26:56.857Z,10.70
2017-10-31T11:32:01.060Z,10.90
2017-10-31T11:37:03.720Z,11.00
2017-10-31T11:42:07.027Z,11.20
2017-10-31T11:47:11.327Z,11.30
2017-10-31T11:52:14.684Z,11.40
2017-10-31T11:57:17.349Z,11.40
2017-10-31T12:02:20.742Z,11.60
2017-10-31T12:07:23.537Z,11.60
2017-10-31T12:12:26.899Z,11.70
2017-10-31T12:17:29.525Z,11.80
2017-10-31T12:22:32.276Z,11.90
2017-10-31T12:27:36.634Z,12.20
2017-10-31T12:32:40.088Z,12.20
2017-10-31T12:37:43.103Z,12.30
2017-10-31T12:42:46.608Z,12.30
2017-10-31T12:47:50.941Z,12.20
2017-10-31T12:58:01.047Z,12.00
2017-10-31T13:03:03.799Z,11.90
2017-10-31T13:08:06.914Z,11.80
2017-10-31T13:13:11.076Z,11.60
2017-10-31T13:18:14.074Z,11.60
2017-10-31T13:23:17.542Z,11.50
2017-10-31T13:28:20.910Z,11.40
2017-10-31T13:33:24.818Z,11.30
2017-10-31T13:38:29.707Z,11.10
2017-10-31T13:43:34.571Z,11.10
2017-10-31T13:48:37.548Z,11.10
2017-10-31T13:53:40.849Z,11.00
2017-10-31T13:58:44.250Z,10.90
2017-10-31T14:03:50.752Z,10.80
2017-10-31T14:08:54.407Z,10.80
2017-10-31T14:13:58.535Z,10.80
2017-10-31T14:19:01.524Z,10.80
2017-10-31T14:24:04.145Z,10.70
2017-10-31T14:29:07.843Z,10.70
2017-10-31T14:34:10.881Z,10.60
2017-10-31T14:39:14.633Z,10.50
2017-10-31T14:44:17.362Z,10.50
2017-10-31T14:49:20.245Z,10.50
2017-10-31T14:54:23.288Z,10.40
2017-10-31T14:59:26.320Z,10.40
2017-10-31T15:04:30.434Z,10.30
2017-10-31T15:09:33.383Z,10.30
2017-10-31T15:14:36.919Z,10.20
2017-10-31T15:19:43.945Z,10.20
2017-10-31T15:24:46.883Z,10.10
2017-10-31T15:29:49.929Z,10.10
2017-10-31T15:34:53.768Z,9.90
2017-10-31T15:39:58.761Z,9.90
2017-10-31T15:45:01.799Z,9.90
2017-10-31T15:50:05.424Z,9.90
2017-10-31T15:55:09.925Z,9.70
2017-10-31T16:00:12.907Z,9.70
2017-10-31T16:05:17.387Z,9.60
2017-10-31T16:10:20.739Z,9.60
2017-10-31T16:15:24.232Z,9.50
2017-10-31T16:20:27.250Z,9.40
2017-10-31T16:25:31.394Z,9.40
2017-10-31T16:30:34.866Z,9.30
2017-10-31T16:35:38.601Z,9.10
2017-10-31T16:40:41.434Z,9.10
2017-10-31T16:45:44.933Z,9.10
2017-10-31T16:50:47.849Z,9.00
2017-10-31T16:55:50.763Z,8.90
2017-10-31T17:00:54.162Z,8.80
2017-10-31T17:05:57.661Z,8.80
2017-10-31T17:11:00.663Z,8.70
2017-10-31T17:21:11.387Z,8.60
2017-10-31T17:26:15.722Z,8.60
2017-10-31T17:31:19.245Z,8.50
2017-10-31T17:36:22.766Z,8.50
2017-10-31T17:41:26.445Z,8.40
2017-10-31T17:46:31.062Z,8.40
2017-10-31T17:51:34.469Z,8.40
2017-10-31T17:56:37.973Z,8.30
2017-10-31T18:01:40.967Z,8.30
2017-10-31T18:06:46.270Z,8.20
2017-10-31T18:11:50.047Z,8.20
2017-10-31T18:16:54.322Z,8.10
2017-10-31T18:21:57.807Z,8.10
2017-10-31T18:27:04.360Z,8.10
2017-10-31T18:32:07.289Z,8.00
2017-10-31T18:37:10.332Z,8.00
2017-10-31T18:42:13.259Z,8.00
2017-10-31T18:47:16.103Z,7.90
2017-10-31T18:52:19.017Z,7.90
2017-10-31T18:57:22.400Z,7.90
2017-10-31T19:02:25.880Z,7.80
2017-10-31T19:07:30.077Z,7.80
2017-10-31T19:17:41.235Z,7.70
2017-10-31T19:22:44.209Z,7.70
2017-10-31T19:27:48.528Z,7.60
2017-10-31T19:32:52.835Z,7.60
2017-10-31T19:37:55.542Z,7.60
2017-10-31T19:42:58.864Z,7.60
2017-10-31T19:48:01.798Z,7.50
2017-10-31T19:53:07.730Z,7.50
2017-10-31T19:58:12.545Z,7.40
2017-10-31T20:03:15.495Z,7.40
2017-10-31T20:08:18.193Z,7.30
2017-10-31T20:13:21.065Z,7.30
2017-10-31T20:18:25.310Z,7.30
2017-10-31T20:23:28.501Z,7.20
2017-10-31T20:28:32.717Z,7.20
2017-10-31T20:33:36.149Z,7.10
2017-10-31T20:38:39.277Z,7.10
2017-10-31T20:43:42.337Z,7.10
2017-10-31T20:48:45.751Z,7.10
2017-10-31T20:53:49.182Z,7.00
2017-10-31T20:58:52.487Z,7.00
2017-10-31T21:03:55.441Z,7.00
2017-10-31T21:08:58.284Z,6.90
2017-10-31T21:14:01.244Z,6.90
2017-10-31T21:19:04.254Z,6.80
2017-10-31T21:24:07.684Z,6.80
2017-10-31T21:29:11.214Z,6.80
2017-10-31T21:34:14.013Z,6.80
2017-10-31T21:39:17.034Z,6.80
2017-10-31T21:44:20.383Z,6.70
2017-10-31T21:49:23.122Z,6.70
2017-10-31T21:54:28.129Z,6.60
2017-10-31T21:59:32.086Z,6.60
2017-10-31T22:04:36.388Z,6.60
2017-10-31T22:09:40.117Z,6.60
2017-10-31T22:14:45.156Z,6.50
2017-10-31T22:19:47.794Z,6.50
2017-10-31T22:24:52.910Z,6.40
2017-10-31T22:29:57.156Z,6.40
2017-10-31T22:35:00.596Z,6.40
2017-10-31T22:40:05.118Z,6.40
2017-10-31T22:45:08.231Z,6.30
2017-10-31T22:50:12.669Z,6.30
2017-10-31T22:55:15.588Z,6.20
2017-10-31T23:00:19.901Z,6.20
2017-10-31T23:05:23.506Z,6.20
2017-10-31T23:10:27.026Z,6.10
2017-10-31T23:15:30.029Z,6.10
2017-10-31T23:20:32.734Z,6.10
2017-10-31T23:25:37.110Z,6.10
2017-10-31T23:30:40.686Z,6.10
2017-10-31T23:35:43.656Z,6.10
2017-10-31T23:40:47.070Z,6.00
2017-10-31T23:45:50.008Z,6.00
2017-10-31T23:50:52.755Z,5.90
2017-10-31T23:55:56.122Z,5.90
